createdAt,value
2023-03-22T00:06:31.356Z,88.8
2023-03-22T00:26:31.341Z,88.6
2023-03-22T00:46:31.329Z,89.6
2023-03-22T01:06:31.361Z,88.9
2023-03-22T01:26:31.347Z,89.6
2023-03-22T01:46:31.266Z,89.2
2023-03-22T02:06:31.251Z,89.7
2023-03-22T02:26:31.352Z,88.8
2023-03-22T02:46:31.221Z,88.7
2023-03-22T03:06:31.197Z,88.8
2023-03-22T03:26:31.185Z,89.3
2023-03-22T03:46:31.264Z,89.1
2023-03-22T04:06:31.148Z,90.3
2023-03-22T04:26:31.161Z,88.9
2023-03-22T04:46:31.177Z,89.0
2023-03-22T05:06:31.100Z,89.1
2023-03-22T05:26:31.097Z,89.5
2023-03-22T05:46:31.103Z,90.0
2023-03-22T06:06:31.107Z,91.9
2023-03-22T06:26:31.058Z,92.1
2023-03-22T06:46:31.019Z,92.9
2023-03-22T07:06:30.999Z,92.3
2023-03-22T07:26:31.034Z,90.0
2023-03-22T07:46:31.009Z,89.2
2023-03-22T08:06:31.061Z,88.3
2023-03-22T08:26:31.016Z,86.2
2023-03-22T08:46:31.001Z,84.2
2023-03-22T09:06:30.942Z,80.5
2023-03-22T09:46:31.007Z,73.0
2023-03-22T10:06:30.838Z,68.2
2023-03-22T10:26:30.982Z,68.7
2023-03-22T10:46:30.778Z,64.9
2023-03-22T11:06:30.825Z,63.2
2023-03-22T11:26:30.804Z,61.3
2023-03-22T11:46:30.795Z,62.3
2023-03-22T12:06:30.783Z,62.0
2023-03-22T12:26:30.586Z,54.7
2023-03-22T12:46:30.576Z,57.0
2023-03-22T13:06:30.550Z,54.8
2023-03-22T13:26:30.506Z,53.3
2023-03-22T13:46:30.486Z,53.4
2023-03-22T14:06:30.464Z,52.3
2023-03-22T15:06:30.506Z,52.1
2023-03-22T15:26:30.514Z,56.9
2023-03-22T15:46:30.500Z,57.8
2023-03-22T16:06:30.292Z,60.8
2023-03-22T16:26:30.265Z,65.4
2023-03-22T16:46:30.362Z,63.8
2023-03-22T17:06:30.388Z,64.6
2023-03-22T17:26:30.175Z,68.1
2023-03-22T17:46:30.171Z,68.4
2023-03-22T18:06:30.125Z,69.8
2023-03-22T18:26:30.297Z,72.3
2023-03-22T18:46:30.085Z,74.1
2023-03-22T19:06:30.241Z,71.4
2023-03-22T19:26:30.213Z,76.4
2023-03-22T20:06:30.206Z,77.6
2023-03-22T20:26:30.117Z,79.9
2023-03-22T20:46:30.111Z,79.7
2023-03-22T21:06:29.936Z,81.2
2023-03-22T21:26:30.102Z,80.9
2023-03-22T21:46:30.090Z,82.8
2023-03-22T22:06:29.889Z,83.1
2023-03-22T22:26:30.090Z,83.8
2023-03-22T22:46:29.839Z,85.6
2023-03-22T23:06:29.965Z,85.9
2023-03-22T23:26:29.867Z,85.5
2023-03-22T23:46:29.790Z,85.4
